createdAt,value
2022-11-25T00:02:00.690Z,98319.00
2022-11-25T00:04:37.105Z,98307.00
2022-11-25T00:07:07.223Z,98315.00
2022-11-25T00:09:37.159Z,98309.00
2022-11-25T00:12:07.407Z,98312.00
2022-11-25T00:14:39.957Z,98315.00
2022-11-25T00:17:09.835Z,98313.00
2022-11-25T00:19:39.666Z,98315.00
2022-11-25T00:22:09.559Z,98319.00
2022-11-25T00:24:39.395Z,98328.00
2022-11-25T00:27:09.293Z,98327.00
2022-11-25T00:29:43.961Z,98325.00
2022-11-25T00:32:13.918Z,98308.00
2022-11-25T00:34:43.751Z,98313.00
2022-11-25T00:37:13.678Z,98314.00
2022-11-25T00:39:43.637Z,98308.00
2022-11-25T00:42:26.092Z,98315.00
2022-11-25T00:44:58.978Z,98324.00
2022-11-25T00:47:29.616Z,98312.00
2022-11-25T00:49:59.612Z,98327.00
2022-11-25T00:52:30.608Z,98322.00
2022-11-25T00:55:00.537Z,98324.00
2022-11-25T00:57:30.520Z,98324.00
2022-11-25T01:00:03.168Z,98327.00
2022-11-25T01:02:33.171Z,98325.00
2022-11-25T01:05:03.123Z,98318.00
2022-11-25T01:07:33.066Z,98338.00
2022-11-25T01:10:03.214Z,98338.00
2022-11-25T01:12:33.295Z,98336.00
2022-11-25T01:15:06.873Z,98334.00
2022-11-25T01:17:37.705Z,98336.00
2022-11-25T01:20:10.005Z,98331.00
2022-11-25T01:22:42.623Z,98340.00
2022-11-25T01:25:13.033Z,98335.00
2022-11-25T01:27:43.247Z,98329.00
2022-11-25T01:30:16.161Z,98336.00
2022-11-25T01:32:46.109Z,98333.00
2022-11-25T01:35:16.188Z,98329.00
2022-11-25T01:37:46.103Z,98334.00
2022-11-25T01:40:16.300Z,98326.00
2022-11-25T01:42:47.411Z,98323.00
2022-11-25T01:45:36.518Z,98315.00
2022-11-25T01:48:12.020Z,98324.00
2022-11-25T01:50:42.715Z,98326.00
2022-11-25T01:53:14.047Z,98325.00
2022-11-25T01:55:47.081Z,98328.00
2022-11-25T01:58:19.605Z,98324.00
2022-11-25T02:00:54.035Z,98332.00
2022-11-25T02:03:26.563Z,98332.00
2022-11-25T02:06:02.682Z,98334.00
2022-11-25T02:08:34.182Z,98344.00
2022-11-25T02:11:05.359Z,98332.00
2022-11-25T02:13:36.237Z,98338.00
2022-11-25T02:16:08.992Z,98351.00
2022-11-25T02:18:39.012Z,98341.00
2022-11-25T02:21:09.481Z,98343.00
2022-11-25T02:23:44.240Z,98333.00
2022-11-25T02:26:16.800Z,98341.00
2022-11-25T02:28:47.643Z,98343.00
2022-11-25T02:31:22.907Z,98335.00
2022-11-25T02:33:53.012Z,98344.00
2022-11-25T02:36:25.052Z,98345.00
2022-11-25T02:38:57.063Z,98340.00
2022-11-25T02:41:33.850Z,98331.00
2022-11-25T02:44:08.081Z,98341.00
2022-11-25T02:46:39.036Z,98337.00
2022-11-25T02:49:10.505Z,98345.00
2022-11-25T02:51:44.074Z,98347.00
2022-11-25T02:54:14.338Z,98340.00
2022-11-25T02:56:47.772Z,98349.00
2022-11-25T02:59:17.658Z,98346.00
2022-11-25T03:01:48.942Z,98351.00
2022-11-25T03:04:18.830Z,98351.00
2022-11-25T03:06:48.745Z,98347.00
2022-11-25T03:09:18.670Z,98357.00
2022-11-25T03:12:03.625Z,98353.00
2022-11-25T03:14:33.714Z,98360.00
2022-11-25T03:17:04.669Z,98352.00
2022-11-25T03:19:34.656Z,98348.00
2022-11-25T03:22:04.759Z,98350.00
2022-11-25T03:24:36.607Z,98348.00
2022-11-25T03:27:09.565Z,98355.00
2022-11-25T03:29:40.290Z,98358.00
2022-11-25T03:32:11.047Z,98353.00
2022-11-25T03:34:42.010Z,98358.00
2022-11-25T03:37:12.762Z,98367.00
2022-11-25T03:39:42.914Z,98361.00
2022-11-25T03:42:15.551Z,98354.00
2022-11-25T03:44:46.107Z,98364.00
2022-11-25T03:47:16.568Z,98360.00
2022-11-25T03:49:46.835Z,98367.00
2022-11-25T03:52:17.310Z,98369.00
2022-11-25T03:54:48.034Z,98367.00
2022-11-25T03:57:26.789Z,98373.00
2022-11-25T03:59:57.492Z,98377.00
2022-11-25T04:02:27.969Z,98373.00
2022-11-25T04:04:58.263Z,98368.00
2022-11-25T04:07:28.388Z,98372.00
2022-11-25T04:10:00.499Z,98368.00
2022-11-25T04:12:52.608Z,98376.00
2022-11-25T04:15:27.130Z,98380.00
2022-11-25T04:18:00.337Z,98377.00
2022-11-25T04:20:30.370Z,98377.00
2022-11-25T04:23:06.916Z,98382.00
2022-11-25T04:25:39.898Z,98385.00
2022-11-25T04:28:17.708Z,98390.00
2022-11-25T04:30:47.759Z,98397.00
2022-11-25T04:33:17.795Z,98404.00
2022-11-25T04:35:50.356Z,98398.00
2022-11-25T04:38:20.319Z,98399.00
2022-11-25T04:40:51.579Z,98403.00
2022-11-25T04:43:27.323Z,98402.00
2022-11-25T04:46:15.683Z,98409.00
2022-11-25T04:48:49.410Z,98411.00
2022-11-25T04:51:19.824Z,98417.00
2022-11-25T04:53:49.663Z,98421.00
2022-11-25T04:56:21.293Z,98421.00
2022-11-25T04:59:09.139Z,98415.00
2022-11-25T05:01:43.000Z,98409.00
2022-11-25T05:04:23.993Z,98414.00
2022-11-25T05:06:54.200Z,98409.00
2022-11-25T05:09:26.215Z,98391.00
2022-11-25T05:12:24.325Z,98393.00
2022-11-25T05:14:57.140Z,98397.00
2022-11-25T05:17:29.149Z,98404.00
2022-11-25T05:19:59.448Z,98407.00
2022-11-25T05:22:31.096Z,98412.00
2022-11-25T05:25:01.555Z,98411.00
2022-11-25T05:27:32.874Z,98415.00
2022-11-25T05:30:13.608Z,98412.00
2022-11-25T05:32:44.945Z,98420.00
2022-11-25T05:35:14.858Z,98433.00
2022-11-25T05:37:46.957Z,98428.00
2022-11-25T05:40:17.394Z,98435.00
2022-11-25T05:43:03.425Z,98431.00
2022-11-25T05:45:37.810Z,98442.00
2022-11-25T05:48:08.782Z,98441.00
2022-11-25T05:50:40.022Z,98438.00
2022-11-25T05:53:20.219Z,98441.00
2022-11-25T05:55:57.129Z,98444.00
2022-11-25T05:58:45.931Z,98452.00
2022-11-25T06:01:20.440Z,98443.00
2022-11-25T06:03:51.164Z,98442.00
2022-11-25T06:06:22.054Z,98448.00
2022-11-25T06:08:52.022Z,98452.00
2022-11-25T06:11:21.961Z,98451.00
2022-11-25T06:13:51.854Z,98444.00
2022-11-25T06:16:25.923Z,98454.00
2022-11-25T06:18:55.736Z,98453.00
2022-11-25T06:21:25.708Z,98461.00
2022-11-25T06:23:55.635Z,98462.00
2022-11-25T06:26:26.371Z,98462.00
2022-11-25T06:28:57.542Z,98456.00
2022-11-25T06:31:30.007Z,98454.00
2022-11-25T06:34:42.135Z,98452.00
2022-11-25T06:37:21.368Z,98463.00
2022-11-25T06:39:51.250Z,98468.00
2022-11-25T06:42:21.057Z,98463.00
2022-11-25T06:44:50.940Z,98463.00
2022-11-25T06:47:23.402Z,98466.00
2022-11-25T06:49:53.693Z,98467.00
2022-11-25T06:52:23.920Z,98479.00
2022-11-25T06:54:54.100Z,98475.00
2022-11-25T06:57:23.962Z,98471.00
2022-11-25T06:59:54.269Z,98478.00
2022-11-25T07:02:26.805Z,98483.00
2022-11-25T07:04:56.788Z,98483.00
2022-11-25T07:07:26.704Z,98477.00
2022-11-25T07:09:56.619Z,98481.00
2022-11-25T07:12:26.543Z,98479.00
2022-11-25T07:14:56.444Z,98488.00
2022-11-25T07:17:28.859Z,98483.00
2022-11-25T07:19:58.646Z,98492.00
2022-11-25T07:22:28.529Z,98496.00
2022-11-25T07:24:58.392Z,98490.00
2022-11-25T07:27:28.273Z,98493.00
2022-11-25T07:30:41.142Z,98493.00
2022-11-25T07:32:50.673Z,98496.00
2022-11-25T07:35:20.702Z,98495.00
2022-11-25T07:37:50.530Z,98488.00
2022-11-25T07:40:20.674Z,98505.00
2022-11-25T07:42:50.570Z,98497.00
2022-11-25T07:45:20.952Z,98500.00
2022-11-25T07:47:58.094Z,98499.00
2022-11-25T07:50:28.054Z,98499.00
2022-11-25T07:52:57.891Z,98502.00
2022-11-25T07:55:27.720Z,98509.00
2022-11-25T07:57:57.679Z,98508.00
2022-11-25T08:00:27.771Z,98517.00
2022-11-25T08:03:00.385Z,98520.00
2022-11-25T08:05:30.446Z,98512.00
2022-11-25T08:08:00.431Z,98524.00
2022-11-25T08:10:30.361Z,98515.00
2022-11-25T08:13:00.344Z,98517.00
2022-11-25T08:15:30.239Z,98521.00
2022-11-25T08:18:02.750Z,98516.00
2022-11-25T08:20:32.813Z,98523.00
2022-11-25T08:23:02.815Z,98518.00
2022-11-25T08:25:32.860Z,98523.00
2022-11-25T08:28:02.861Z,98523.00
2022-11-25T08:30:32.696Z,98516.00
2022-11-25T08:33:07.501Z,98517.00
2022-11-25T08:35:38.885Z,98524.00
2022-11-25T08:38:09.133Z,98527.00
2022-11-25T08:40:40.038Z,98534.00
2022-11-25T08:43:10.037Z,98530.00
2022-11-25T08:45:39.925Z,98527.00
2022-11-25T08:48:12.552Z,98529.00
2022-11-25T08:50:42.579Z,98544.00
2022-11-25T08:53:12.509Z,98546.00
2022-11-25T08:55:42.472Z,98537.00
2022-11-25T08:58:13.433Z,98547.00
2022-11-25T09:00:43.892Z,98529.00
2022-11-25T09:03:16.773Z,98540.00
2022-11-25T09:05:47.193Z,98543.00
2022-11-25T09:08:17.167Z,98540.00
2022-11-25T09:10:47.254Z,98542.00
2022-11-25T09:13:17.203Z,98537.00
2022-11-25T09:15:47.166Z,98543.00
2022-11-25T09:18:20.464Z,98539.00
2022-11-25T09:20:50.596Z,98548.00
2022-11-25T09:23:20.513Z,98543.00
2022-11-25T09:25:54.083Z,98547.00
2022-11-25T09:28:24.380Z,98550.00
2022-11-25T09:30:57.417Z,98548.00
2022-11-25T09:33:30.005Z,98547.00
2022-11-25T09:36:03.105Z,98543.00
2022-11-25T09:38:33.106Z,98545.00
2022-11-25T09:41:05.695Z,98536.00
2022-11-25T09:43:56.115Z,98530.00
2022-11-25T09:46:46.265Z,98529.00
2022-11-25T09:49:41.757Z,98530.00
2022-11-25T09:52:16.363Z,98538.00
2022-11-25T09:54:49.688Z,98545.00
2022-11-25T09:57:25.154Z,98531.00
2022-11-25T10:00:03.918Z,98531.00
2022-11-25T10:02:45.166Z,98540.00
2022-11-25T10:05:24.050Z,98541.00
2022-11-25T10:07:56.508Z,98537.00
2022-11-25T10:10:31.004Z,98539.00
2022-11-25T10:13:02.568Z,98534.00
2022-11-25T10:15:37.130Z,98537.00
2022-11-25T10:18:13.715Z,98540.00
2022-11-25T10:20:46.915Z,98543.00
2022-11-25T10:23:27.661Z,98539.00
2022-11-25T10:26:01.456Z,98537.00
2022-11-25T10:28:36.658Z,98535.00
2022-11-25T10:31:10.172Z,98543.00
2022-11-25T10:33:42.933Z,98537.00
2022-11-25T10:36:18.891Z,98539.00
2022-11-25T10:38:55.452Z,98546.00
2022-11-25T10:41:29.311Z,98540.00
2022-11-25T10:43:59.284Z,98550.00
2022-11-25T10:47:11.182Z,98549.00
2022-11-25T10:49:31.648Z,98548.00
2022-11-25T10:52:04.293Z,98558.00
2022-11-25T10:54:34.499Z,98551.00
2022-11-25T10:57:05.867Z,98560.00
2022-11-25T10:59:37.448Z,98565.00
2022-11-25T11:02:19.754Z,98561.00
2022-11-25T11:04:59.379Z,98565.00
2022-11-25T11:07:36.908Z,98561.00
2022-11-25T11:10:22.877Z,98558.00
2022-11-25T11:13:01.835Z,98568.00
2022-11-25T11:15:33.595Z,98560.00
2022-11-25T11:18:18.037Z,98562.00
2022-11-25T11:20:50.096Z,98563.00
2022-11-25T11:23:22.735Z,98569.00
2022-11-25T11:26:01.635Z,98566.00
2022-11-25T11:28:37.050Z,98562.00
2022-11-25T11:31:09.590Z,98564.00
2022-11-25T11:33:46.260Z,98565.00
2022-11-25T11:36:37.580Z,98570.00
2022-11-25T11:39:25.539Z,98563.00
2022-11-25T11:41:59.457Z,98560.00
2022-11-25T11:44:35.388Z,98561.00
2022-11-25T11:47:16.781Z,98557.00
2022-11-25T11:50:01.177Z,98567.00
2022-11-25T11:52:36.037Z,98566.00
2022-11-25T11:55:28.082Z,98562.00
2022-11-25T11:58:04.612Z,98560.00
2022-11-25T12:00:42.000Z,98556.00
2022-11-25T12:03:16.353Z,98556.00
2022-11-25T12:05:46.696Z,98558.00
2022-11-25T12:08:19.033Z,98558.00
2022-11-25T12:10:54.900Z,98559.00
2022-11-25T12:13:32.563Z,98553.00
2022-11-25T12:16:08.240Z,98563.00
2022-11-25T12:18:52.370Z,98551.00
2022-11-25T12:21:41.689Z,98550.00
2022-11-25T12:24:19.622Z,98544.00
2022-11-25T12:26:56.878Z,98549.00
2022-11-25T12:29:34.111Z,98557.00
2022-11-25T12:32:12.956Z,98566.00
2022-11-25T12:34:46.303Z,98560.00
2022-11-25T12:37:21.248Z,98565.00
2022-11-25T12:39:54.905Z,98569.00
2022-11-25T12:42:28.640Z,98560.00
2022-11-25T12:45:03.707Z,98558.00
2022-11-25T12:47:33.790Z,98560.00
2022-11-25T12:50:03.861Z,98553.00
2022-11-25T12:52:45.472Z,98557.00
2022-11-25T12:55:18.978Z,98552.00
2022-11-25T12:58:28.428Z,98547.00
2022-11-25T13:01:30.992Z,98553.00
2022-11-25T13:04:26.547Z,98547.00
2022-11-25T13:07:26.454Z,98550.00
2022-11-25T13:10:18.819Z,98537.00
2022-11-25T13:13:00.940Z,98546.00
2022-11-25T13:15:35.033Z,98539.00
2022-11-25T13:18:07.097Z,98541.00
2022-11-25T13:20:40.576Z,98537.00
2022-11-25T13:23:13.213Z,98537.00
2022-11-25T13:25:44.857Z,98542.00
2022-11-25T13:28:33.592Z,98551.00
2022-11-25T13:31:27.796Z,98560.00
2022-11-25T13:34:06.092Z,98556.00
2022-11-25T13:36:51.656Z,98549.00
2022-11-25T13:39:22.388Z,98552.00
2022-11-25T13:42:00.397Z,98551.00
2022-11-25T13:44:32.796Z,98561.00
2022-11-25T13:47:26.584Z,98559.00
2022-11-25T13:49:58.143Z,98561.00
2022-11-25T13:52:40.547Z,98558.00
2022-11-25T13:55:24.743Z,98571.00
2022-11-25T13:58:06.842Z,98568.00
2022-11-25T14:01:29.230Z,98572.00
2022-11-25T14:04:03.562Z,98576.00
2022-11-25T14:07:00.179Z,98576.00
2022-11-25T14:09:41.378Z,98575.00
2022-11-25T14:12:35.256Z,98571.00
2022-11-25T14:15:32.242Z,98572.00
2022-11-25T14:19:03.212Z,98576.00
2022-11-25T14:21:33.739Z,98590.00
2022-11-25T14:24:15.432Z,98577.00
2022-11-25T14:26:50.386Z,98593.00
2022-11-25T14:29:23.650Z,98587.00
2022-11-25T14:31:57.344Z,98592.00
2022-11-25T14:34:30.967Z,98603.00
2022-11-25T14:37:11.230Z,98599.00
2022-11-25T14:39:45.527Z,98592.00
2022-11-25T14:42:17.980Z,98609.00
2022-11-25T14:44:50.431Z,98596.00
2022-11-25T14:47:24.873Z,98613.00
2022-11-25T14:50:18.809Z,98616.00
2022-11-25T14:52:48.624Z,98613.00
2022-11-25T14:55:27.953Z,98606.00
2022-11-25T14:57:57.588Z,98622.00
2022-11-25T15:00:27.607Z,98621.00
2022-11-25T15:03:00.056Z,98636.00
2022-11-25T15:05:34.886Z,98619.00
2022-11-25T15:08:14.089Z,98621.00
2022-11-25T15:10:46.637Z,98622.00
2022-11-25T15:13:23.889Z,98626.00
2022-11-25T15:15:55.720Z,98624.00
2022-11-25T15:18:27.174Z,98620.00
2022-11-25T15:21:00.031Z,98634.00
2022-11-25T15:23:34.962Z,98632.00
2022-11-25T15:26:05.730Z,98636.00
2022-11-25T15:28:39.846Z,98641.00
2022-11-25T15:31:12.771Z,98636.00
2022-11-25T15:33:43.172Z,98635.00
2022-11-25T15:36:13.623Z,98643.00
2022-11-25T15:38:47.762Z,98635.00
2022-11-25T15:41:22.795Z,98647.00
2022-11-25T15:43:54.249Z,98635.00
2022-11-25T15:46:25.083Z,98642.00
2022-11-25T15:48:56.723Z,98639.00
2022-11-25T15:51:34.432Z,98638.00
2022-11-25T15:54:09.242Z,98636.00
2022-11-25T15:56:41.015Z,98641.00
2022-11-25T15:59:40.731Z,98640.00
2022-11-25T16:02:32.926Z,98644.00
2022-11-25T16:05:21.811Z,98649.00
2022-11-25T16:08:03.415Z,98645.00
2022-11-25T16:10:37.826Z,98644.00
2022-11-25T16:13:38.029Z,98652.00
2022-11-25T16:16:29.513Z,98649.00
2022-11-25T16:19:15.988Z,98652.00
2022-11-25T16:21:49.579Z,98652.00
2022-11-25T16:24:29.139Z,98654.00
2022-11-25T16:27:03.601Z,98653.00
2022-11-25T16:29:35.904Z,98654.00
2022-11-25T16:32:16.559Z,98661.00
2022-11-25T16:34:47.493Z,98661.00
2022-11-25T16:37:17.382Z,98663.00
2022-11-25T16:39:47.216Z,98663.00
2022-11-25T16:42:23.940Z,98666.00
2022-11-25T16:44:54.901Z,98658.00
2022-11-25T16:47:26.395Z,98659.00
2022-11-25T16:49:56.287Z,98672.00
2022-11-25T16:52:26.137Z,98666.00
2022-11-25T16:54:56.019Z,98667.00
2022-11-25T16:57:28.557Z,98667.00
2022-11-25T17:00:01.031Z,98669.00
2022-11-25T17:02:31.120Z,98666.00
2022-11-25T17:05:02.190Z,98673.00
2022-11-25T17:07:33.531Z,98667.00
2022-11-25T17:10:03.912Z,98662.00
2022-11-25T17:12:37.309Z,98675.00
2022-11-25T17:15:09.825Z,98668.00
2022-11-25T17:17:39.855Z,98668.00
2022-11-25T17:20:13.719Z,98658.00
2022-11-25T17:22:43.729Z,98665.00
2022-11-25T17:25:14.744Z,98665.00
2022-11-25T17:27:48.239Z,98665.00
2022-11-25T17:30:21.772Z,98669.00
2022-11-25T17:32:57.124Z,98678.00
2022-11-25T17:35:27.662Z,98683.00
2022-11-25T17:37:57.622Z,98688.00
2022-11-25T17:40:27.600Z,98680.00
2022-11-25T17:43:00.155Z,98684.00
2022-11-25T17:45:30.089Z,98678.00
2022-11-25T17:48:00.020Z,98693.00
2022-11-25T17:50:29.946Z,98680.00
2022-11-25T17:52:59.848Z,98674.00
2022-11-25T17:55:29.678Z,98681.00
2022-11-25T17:58:02.319Z,98677.00
2022-11-25T18:00:34.292Z,98678.00
2022-11-25T18:03:04.226Z,98689.00
2022-11-25T18:05:35.115Z,98682.00
2022-11-25T18:08:05.053Z,98688.00
2022-11-25T18:10:35.027Z,98693.00
2022-11-25T18:13:08.308Z,98693.00
2022-11-25T18:15:38.655Z,98700.00
2022-11-25T18:18:10.478Z,98694.00
2022-11-25T18:20:40.536Z,98689.00
2022-11-25T18:23:12.488Z,98692.00
2022-11-25T18:25:43.365Z,98697.00
2022-11-25T18:28:19.540Z,98693.00
2022-11-25T18:30:49.651Z,98688.00
2022-11-25T18:33:21.215Z,98701.00
2022-11-25T18:35:51.154Z,98695.00
2022-11-25T18:38:20.995Z,98691.00
2022-11-25T18:40:53.784Z,98702.00
2022-11-25T18:43:27.684Z,98697.00
2022-11-25T18:45:58.129Z,98693.00
2022-11-25T18:48:29.088Z,98696.00
2022-11-25T18:50:59.170Z,98702.00
2022-11-25T18:53:29.483Z,98702.00
2022-11-25T18:55:59.293Z,98702.00
2022-11-25T18:58:32.796Z,98702.00
2022-11-25T19:01:06.527Z,98706.00
2022-11-25T19:03:36.492Z,98714.00
2022-11-25T19:06:06.521Z,98712.00
2022-11-25T19:08:36.440Z,98709.00
2022-11-25T19:11:06.268Z,98720.00
2022-11-25T19:13:39.553Z,98716.00
2022-11-25T19:16:12.284Z,98712.00
2022-11-25T19:18:42.430Z,98720.00
2022-11-25T19:21:13.867Z,98730.00
2022-11-25T19:23:43.849Z,98731.00
2022-11-25T19:26:16.788Z,98725.00
2022-11-25T19:28:52.455Z,98725.00
2022-11-25T19:31:22.769Z,98731.00
2022-11-25T19:33:54.292Z,98738.00
2022-11-25T19:36:27.131Z,98732.00
2022-11-25T19:38:57.475Z,98737.00
2022-11-25T19:41:27.496Z,98739.00
2022-11-25T19:44:00.055Z,98736.00
2022-11-25T19:46:46.350Z,98745.00
2022-11-25T19:49:24.055Z,98733.00
2022-11-25T19:51:53.930Z,98749.00
2022-11-25T19:54:23.803Z,98746.00
2022-11-25T19:56:53.654Z,98747.00
2022-11-25T19:59:26.152Z,98754.00
2022-11-25T20:01:56.079Z,98758.00
2022-11-25T20:04:26.019Z,98762.00
2022-11-25T20:06:55.876Z,98757.00
2022-11-25T20:09:25.686Z,98764.00
2022-11-25T20:11:58.817Z,98774.00
2022-11-25T20:14:34.750Z,98773.00
2022-11-25T20:17:07.837Z,98777.00
2022-11-25T20:19:37.697Z,98786.00
2022-11-25T20:22:07.700Z,98780.00
2022-11-25T20:24:37.994Z,98782.00
2022-11-25T20:27:08.157Z,98791.00
2022-11-25T20:29:40.661Z,98778.00
2022-11-25T20:32:22.176Z,98785.00
2022-11-25T20:34:52.140Z,98787.00
2022-11-25T20:37:24.118Z,98782.00
2022-11-25T20:39:55.029Z,98781.00
2022-11-25T20:42:25.472Z,98799.00
2022-11-25T20:44:58.119Z,98809.00
2022-11-25T20:47:28.425Z,98808.00
2022-11-25T20:49:58.442Z,98805.00
2022-11-25T20:52:32.942Z,98814.00
2022-11-25T20:55:03.672Z,98819.00
2022-11-25T20:57:33.534Z,98813.00
2022-11-25T21:00:12.070Z,98819.00
2022-11-25T21:02:42.024Z,98818.00
2022-11-25T21:05:12.053Z,98820.00
2022-11-25T21:07:42.384Z,98829.00
2022-11-25T21:10:28.504Z,98813.00
2022-11-25T21:12:59.358Z,98813.00
2022-11-25T21:15:31.900Z,98821.00
2022-11-25T21:18:01.766Z,98810.00
2022-11-25T21:20:31.965Z,98807.00
2022-11-25T21:23:05.598Z,98812.00
2022-11-25T21:25:37.032Z,98818.00
2022-11-25T21:28:07.559Z,98822.00
2022-11-25T21:30:40.087Z,98820.00
2022-11-25T21:33:13.048Z,98819.00
2022-11-25T21:35:43.884Z,98813.00
2022-11-25T21:38:18.689Z,98810.00
2022-11-25T21:40:50.044Z,98813.00
2022-11-25T21:43:22.030Z,98809.00
2022-11-25T21:45:56.786Z,98825.00
2022-11-25T21:48:28.473Z,98826.00
2022-11-25T21:50:58.838Z,98827.00
2022-11-25T21:53:33.175Z,98830.00
2022-11-25T21:56:06.055Z,98832.00
2022-11-25T21:58:36.342Z,98839.00
2022-11-25T22:01:09.038Z,98837.00
2022-11-25T22:03:39.017Z,98851.00
2022-11-25T22:06:16.134Z,98846.00
2022-11-25T22:08:46.068Z,98848.00
2022-11-25T22:11:18.024Z,98847.00
2022-11-25T22:13:49.047Z,98846.00
2022-11-25T22:16:27.030Z,98860.00
2022-11-25T22:18:57.127Z,98855.00
2022-11-25T22:21:27.117Z,98856.00
2022-11-25T22:23:57.004Z,98858.00
2022-11-25T22:26:32.748Z,98859.00
2022-11-25T22:29:03.500Z,98856.00
2022-11-25T22:31:36.098Z,98860.00
2022-11-25T22:34:06.095Z,98851.00
2022-11-25T22:36:39.961Z,98855.00
2022-11-25T22:39:16.856Z,98858.00
2022-11-25T22:41:49.172Z,98866.00
2022-11-25T22:44:23.330Z,98857.00
2022-11-25T22:46:55.903Z,98861.00
2022-11-25T22:49:46.242Z,98865.00
2022-11-25T22:52:20.804Z,98871.00
2022-11-25T22:54:50.731Z,98876.00
2022-11-25T22:57:20.799Z,98881.00
2022-11-25T22:59:50.669Z,98877.00
2022-11-25T23:02:26.172Z,98876.00
2022-11-25T23:04:57.974Z,98883.00
2022-11-25T23:07:28.371Z,98883.00
2022-11-25T23:09:58.332Z,98883.00
2022-11-25T23:12:28.140Z,98888.00
2022-11-25T23:14:57.988Z,98887.00
2022-11-25T23:17:30.406Z,98880.00
2022-11-25T23:20:00.491Z,98890.00
2022-11-25T23:22:30.420Z,98884.00
2022-11-25T23:25:00.214Z,98889.00
2022-11-25T23:27:30.157Z,98893.00
2022-11-25T23:29:59.978Z,98885.00
2022-11-25T23:32:32.470Z,98886.00
2022-11-25T23:35:02.430Z,98890.00
2022-11-25T23:37:32.367Z,98890.00
2022-11-25T23:40:02.274Z,98893.00
2022-11-25T23:42:32.156Z,98896.00
2022-11-25T23:45:01.997Z,98894.00
2022-11-25T23:47:34.422Z,98896.00
2022-11-25T23:50:04.351Z,98893.00
2022-11-25T23:52:34.269Z,98903.00
2022-11-25T23:55:04.168Z,98901.00
2022-11-25T23:57:35.654Z,98901.00
